createdAt,value
2023-02-15T00:00:15.177Z,75.50
2023-02-15T00:02:44.749Z,75.70
2023-02-15T00:05:14.359Z,75.70
2023-02-15T00:07:43.927Z,75.60
2023-02-15T00:10:14.677Z,75.70
2023-02-15T00:12:44.299Z,75.80
2023-02-15T00:17:34.623Z,75.70
2023-02-15T00:20:04.195Z,75.90
2023-02-15T00:24:53.489Z,76.00
2023-02-15T02:07:38.866Z,70.00
2023-02-15T02:22:18.694Z,69.00
2023-02-15T02:32:15.012Z,68.60
2023-02-15T04:38:56.176Z,64.60
2023-02-15T04:41:25.761Z,64.90
2023-02-15T04:43:55.488Z,64.90
2023-02-15T04:46:25.232Z,64.80
2023-02-15T04:48:54.958Z,64.80
2023-02-15T04:51:24.707Z,64.40
2023-02-15T04:53:55.409Z,64.20
2023-02-15T04:56:25.194Z,64.10
2023-02-15T04:58:54.863Z,63.80
2023-02-15T05:01:24.592Z,63.60
2023-02-15T05:03:54.271Z,63.60
2023-02-15T05:06:24.181Z,63.70
2023-02-15T05:08:53.783Z,63.60
2023-02-15T05:11:23.598Z,63.60
2023-02-15T05:13:53.220Z,63.50
2023-02-15T05:16:23.026Z,63.40
2023-02-15T05:18:52.684Z,63.30
2023-02-15T05:21:22.242Z,63.10
2023-02-15T05:23:52.011Z,62.90
2023-02-15T05:26:44.373Z,62.60
2023-02-15T05:29:14.612Z,62.60
2023-02-15T05:31:44.727Z,62.60
2023-02-15T05:34:14.578Z,62.50
2023-02-15T05:36:44.316Z,62.30
2023-02-15T05:39:15.033Z,62.40
2023-02-15T05:41:44.678Z,62.40
2023-02-15T05:44:14.297Z,62.20
2023-02-15T05:46:43.936Z,62.10
2023-02-15T05:49:13.618Z,62.00
2023-02-15T05:51:43.259Z,62.00
2023-02-15T05:54:12.774Z,61.80
2023-02-15T05:56:42.404Z,61.30
2023-02-15T05:59:12.044Z,61.60
2023-02-15T06:01:41.646Z,61.90
2023-02-15T06:04:11.378Z,62.10
2023-02-15T06:06:41.034Z,62.20
2023-02-15T06:09:10.624Z,62.10
2023-02-15T06:11:40.316Z,61.90
2023-02-15T06:14:09.869Z,61.90
2023-02-15T06:16:39.465Z,61.80
2023-02-15T06:19:09.539Z,62.00
2023-02-15T06:21:39.125Z,62.00
2023-02-15T06:24:08.898Z,62.10
2023-02-15T06:26:38.620Z,62.00
2023-02-15T06:29:08.291Z,61.80
2023-02-15T06:31:37.900Z,61.70
2023-02-15T06:34:07.737Z,61.60
2023-02-15T06:36:37.693Z,61.60
2023-02-15T06:39:08.055Z,61.50
2023-02-15T06:41:38.617Z,61.40
2023-02-15T06:44:08.447Z,61.40
2023-02-15T06:46:38.152Z,61.00
2023-02-15T06:49:07.904Z,60.70
2023-02-15T06:51:37.661Z,60.80
2023-02-15T06:56:52.111Z,59.90
2023-02-15T06:59:21.665Z,60.60
2023-02-15T07:01:52.536Z,60.60
2023-02-15T07:04:22.190Z,60.70
2023-02-15T07:06:53.612Z,60.70
2023-02-15T07:09:24.023Z,60.70
2023-02-15T07:12:13.471Z,60.40
2023-02-15T07:14:43.254Z,60.30
2023-02-15T07:17:32.867Z,60.60
2023-02-15T07:20:02.447Z,60.70
2023-02-15T07:22:32.174Z,60.70
2023-02-15T07:25:01.809Z,60.60
2023-02-15T07:27:31.679Z,60.60
2023-02-15T07:30:01.802Z,60.60
2023-02-15T07:32:36.449Z,60.60
2023-02-15T07:35:06.423Z,60.60
2023-02-15T07:37:36.049Z,60.60
2023-02-15T07:40:06.563Z,59.90
2023-02-15T07:42:36.768Z,60.30
2023-02-15T07:45:06.510Z,60.30
2023-02-15T07:47:36.136Z,60.60
2023-02-15T07:50:05.804Z,60.60
2023-02-15T07:52:35.397Z,60.60
2023-02-15T07:55:05.229Z,60.60
2023-02-15T07:57:34.958Z,60.70
2023-02-15T08:00:04.778Z,60.70
2023-02-15T08:02:34.492Z,60.90
2023-02-15T08:05:04.149Z,60.50
2023-02-15T08:07:33.704Z,60.60
2023-02-15T08:10:03.357Z,60.50
2023-02-15T08:12:33.037Z,60.30
2023-02-15T08:15:02.670Z,60.30
2023-02-15T08:17:32.412Z,60.30
2023-02-15T08:20:02.009Z,60.60
2023-02-15T08:22:32.363Z,60.50
2023-02-15T08:25:01.994Z,60.60
2023-02-15T08:27:31.510Z,60.30
2023-02-15T08:30:01.117Z,59.80
2023-02-15T08:32:30.820Z,59.40
2023-02-15T08:35:00.357Z,59.10
2023-02-15T08:37:29.944Z,59.20
2023-02-15T08:39:59.509Z,59.50
2023-02-15T08:42:29.220Z,59.70
2023-02-15T08:44:59.546Z,59.80
2023-02-15T08:47:29.327Z,59.80
2023-02-15T08:49:59.006Z,60.00
2023-02-15T08:52:28.643Z,59.90
2023-02-15T08:54:58.334Z,59.80
2023-02-15T08:57:28.000Z,59.70
2023-02-15T08:59:57.734Z,59.60
2023-02-15T09:02:27.552Z,59.50
2023-02-15T09:04:58.077Z,59.50
2023-02-15T09:07:27.668Z,59.30
2023-02-15T09:09:57.371Z,59.20
2023-02-15T09:12:27.057Z,59.10
2023-02-15T09:14:56.647Z,59.10
2023-02-15T09:17:26.318Z,59.00
2023-02-15T09:19:55.926Z,58.90
2023-02-15T09:22:25.536Z,58.70
2023-02-15T09:24:55.219Z,58.30
2023-02-15T09:27:24.836Z,58.30
2023-02-15T09:29:54.531Z,58.50
2023-02-15T09:32:24.832Z,58.60
2023-02-15T09:34:54.498Z,58.90
2023-02-15T09:37:24.233Z,59.60
2023-02-15T09:39:53.884Z,59.50
2023-02-15T09:43:01.499Z,59.50
2023-02-15T09:45:43.279Z,59.50
2023-02-15T09:48:41.417Z,59.60
2023-02-15T09:51:34.989Z,59.60
2023-02-15T09:54:29.707Z,59.40
2023-02-15T09:57:08.472Z,59.40
2023-02-15T10:00:14.297Z,59.60
2023-02-15T10:03:23.456Z,59.50
2023-02-15T10:06:31.696Z,59.50
2023-02-15T10:09:30.902Z,59.60
2023-02-15T10:12:20.486Z,59.50
2023-02-15T10:15:14.744Z,59.50
2023-02-15T10:18:08.996Z,59.20
2023-02-15T10:21:04.970Z,59.10
2023-02-15T10:24:14.821Z,59.10
2023-02-15T10:26:49.196Z,59.10
2023-02-15T10:29:39.648Z,59.20
2023-02-15T10:32:28.737Z,59.10
2023-02-15T10:35:09.897Z,59.20
2023-02-15T10:38:18.695Z,59.40
2023-02-15T10:41:25.589Z,59.60
2023-02-15T10:44:22.243Z,60.00
2023-02-15T10:47:19.678Z,60.10
2023-02-15T10:50:20.721Z,60.20
2023-02-15T10:53:29.469Z,60.30
2023-02-15T10:56:23.170Z,60.60
2023-02-15T10:59:31.974Z,60.70
2023-02-15T11:02:30.715Z,60.80
2023-02-15T11:05:29.866Z,61.00
2023-02-15T11:08:02.883Z,61.00
2023-02-15T11:10:57.961Z,61.10
2023-02-15T11:13:31.769Z,61.20
2023-02-15T11:16:21.207Z,61.10
2023-02-15T11:19:22.057Z,61.00
2023-02-15T11:21:57.963Z,61.00
2023-02-15T11:24:31.523Z,61.20
2023-02-15T11:27:23.733Z,61.30
2023-02-15T11:30:14.831Z,61.50
2023-02-15T11:32:48.930Z,61.60
2023-02-15T11:35:27.698Z,61.70
2023-02-15T11:38:24.679Z,61.80
2023-02-15T11:41:03.148Z,62.00
2023-02-15T11:44:01.531Z,62.00
2023-02-15T11:46:31.360Z,62.30
2023-02-15T11:49:02.224Z,62.30
2023-02-15T11:51:32.759Z,62.50
2023-02-15T11:54:02.911Z,62.60
2023-02-15T11:56:36.009Z,62.70
2023-02-15T11:59:14.894Z,62.80
2023-02-15T12:01:48.237Z,62.90
2023-02-15T12:04:43.478Z,63.20
2023-02-15T12:07:40.670Z,63.40
2023-02-15T12:10:45.799Z,63.60
2023-02-15T12:13:18.598Z,63.70
2023-02-15T12:15:52.907Z,63.70
2023-02-15T12:18:47.198Z,64.10
2023-02-15T12:21:33.987Z,64.30
2023-02-15T12:24:33.190Z,64.50
2023-02-15T12:27:29.966Z,64.60
2023-02-15T12:30:20.243Z,64.80
2023-02-15T12:33:15.493Z,65.00
2023-02-15T12:35:47.085Z,65.10
2023-02-15T12:38:28.059Z,65.20
2023-02-15T12:41:03.966Z,65.50
2023-02-15T12:43:37.425Z,65.90
2023-02-15T12:46:28.164Z,66.20
2023-02-15T12:49:20.936Z,66.80
2023-02-15T12:52:00.699Z,67.20
2023-02-15T12:54:39.565Z,67.50
2023-02-15T12:57:33.306Z,67.60
2023-02-15T13:00:27.925Z,67.90
2023-02-15T13:03:00.542Z,67.70
2023-02-15T13:05:38.775Z,67.90
2023-02-15T13:08:36.217Z,68.70
2023-02-15T13:11:15.810Z,68.30
2023-02-15T13:14:06.859Z,68.30
2023-02-15T13:16:40.924Z,68.40
2023-02-15T13:19:34.786Z,68.60
2023-02-15T13:22:13.697Z,68.60
2023-02-15T13:24:49.238Z,68.80
2023-02-15T13:27:24.272Z,69.10
2023-02-15T13:30:00.993Z,69.00
2023-02-15T13:32:43.500Z,69.00
2023-02-15T13:35:21.640Z,69.20
2023-02-15T13:38:30.492Z,69.20
2023-02-15T13:41:10.165Z,69.30
2023-02-15T13:44:05.359Z,69.40
2023-02-15T13:46:55.676Z,69.60
2023-02-15T13:49:59.688Z,69.50
2023-02-15T13:52:33.884Z,69.90
2023-02-15T13:55:42.743Z,70.00
2023-02-15T13:58:51.800Z,70.30
2023-02-15T14:01:46.560Z,70.80
2023-02-15T14:04:52.613Z,70.70
2023-02-15T14:07:53.288Z,71.10
2023-02-15T14:11:02.336Z,71.50
2023-02-15T14:14:06.493Z,71.90
2023-02-15T14:17:07.758Z,72.10
2023-02-15T14:19:52.576Z,72.20
2023-02-15T14:22:47.050Z,72.30
2023-02-15T14:25:55.956Z,72.50
2023-02-15T14:29:05.321Z,72.70
2023-02-15T14:31:44.925Z,73.10
2023-02-15T14:34:27.609Z,73.20
2023-02-15T14:36:58.334Z,73.10
2023-02-15T14:40:26.699Z,73.10
2023-02-15T14:43:15.064Z,73.30
2023-02-15T14:46:20.159Z,73.50
2023-02-15T14:48:53.632Z,73.50
2023-02-15T14:52:00.741Z,73.80
2023-02-15T14:54:57.437Z,73.70
2023-02-15T14:57:29.260Z,74.20
2023-02-15T15:00:09.482Z,74.00
2023-02-15T15:02:58.910Z,74.00
2023-02-15T15:05:37.613Z,74.60
2023-02-15T15:08:09.226Z,74.60
2023-02-15T15:10:43.568Z,74.80
2023-02-15T15:13:40.500Z,74.80
2023-02-15T15:16:34.534Z,74.90
2023-02-15T15:19:05.683Z,74.80
2023-02-15T15:21:56.031Z,74.80
2023-02-15T15:25:04.885Z,75.00
2023-02-15T15:27:56.755Z,75.00
2023-02-15T15:30:53.073Z,75.10
2023-02-15T15:33:56.813Z,75.20
2023-02-15T15:37:05.635Z,75.30
2023-02-15T15:40:15.737Z,76.00
2023-02-15T15:43:23.559Z,76.00
2023-02-15T15:46:13.300Z,76.00
2023-02-15T15:48:44.876Z,76.30
2023-02-15T15:51:34.551Z,76.70
2023-02-15T15:54:06.644Z,77.40
2023-02-15T15:56:38.985Z,76.80
2023-02-15T15:59:14.941Z,76.60
2023-02-15T16:01:50.764Z,76.60
2023-02-15T16:04:33.169Z,76.80
2023-02-15T16:07:25.646Z,77.10
2023-02-15T16:10:25.802Z,77.10
2023-02-15T16:12:57.843Z,77.20
2023-02-15T16:15:34.122Z,77.30
2023-02-15T16:18:04.723Z,77.30
2023-02-15T16:20:39.754Z,77.30
2023-02-15T16:23:42.335Z,77.60
2023-02-15T16:26:34.244Z,77.70
2023-02-15T16:29:55.534Z,77.90
2023-02-15T16:32:27.997Z,78.30
2023-02-15T16:35:03.500Z,78.40
2023-02-15T16:37:37.667Z,78.20
2023-02-15T16:40:07.935Z,78.00
2023-02-15T16:42:38.673Z,78.20
2023-02-15T16:45:19.589Z,78.10
2023-02-15T16:47:53.461Z,78.00
2023-02-15T16:50:37.427Z,78.10
2023-02-15T16:53:10.072Z,78.20
2023-02-15T16:55:44.531Z,78.60
2023-02-15T16:58:28.511Z,79.50
2023-02-15T17:01:04.555Z,79.50
2023-02-15T17:03:34.632Z,80.20
2023-02-15T17:06:06.091Z,80.70
2023-02-15T17:08:44.351Z,80.80
2023-02-15T17:11:21.161Z,81.10
2023-02-15T17:14:16.920Z,81.20
2023-02-15T17:16:52.303Z,81.60
2023-02-15T17:19:59.519Z,81.40
2023-02-15T17:22:32.037Z,81.40
2023-02-15T17:25:03.941Z,81.40
2023-02-15T17:27:37.310Z,81.20
2023-02-15T17:30:19.870Z,80.80
2023-02-15T17:33:02.271Z,81.00
2023-02-15T17:35:36.521Z,81.20
2023-02-15T17:38:21.754Z,81.40
2023-02-15T17:40:51.444Z,81.50
2023-02-15T17:43:21.034Z,81.60
2023-02-15T17:45:52.953Z,81.30
2023-02-15T17:48:36.552Z,81.20
2023-02-15T17:51:08.312Z,81.30
2023-02-15T17:53:38.075Z,81.10
2023-02-15T17:56:12.468Z,81.40
2023-02-15T17:58:42.837Z,81.50
2023-02-15T18:01:41.162Z,81.60
2023-02-15T18:04:37.663Z,81.40
2023-02-15T18:07:26.941Z,81.60
2023-02-15T18:10:16.279Z,81.60
2023-02-15T18:12:45.979Z,81.80
2023-02-15T18:15:15.805Z,81.60
2023-02-15T18:17:48.775Z,81.80
2023-02-15T18:20:35.326Z,81.70
2023-02-15T18:23:05.173Z,81.60
2023-02-15T18:25:34.922Z,81.50
2023-02-15T18:28:04.637Z,81.30
2023-02-15T18:30:35.157Z,80.90
2023-02-15T18:33:06.015Z,80.40
2023-02-15T18:35:37.693Z,80.10
2023-02-15T18:38:07.427Z,79.80
2023-02-15T18:40:37.152Z,79.60
2023-02-15T18:43:07.035Z,79.40
2023-02-15T18:45:38.867Z,79.30
2023-02-15T18:48:11.538Z,79.00
2023-02-15T18:50:41.277Z,79.10
2023-02-15T18:53:19.336Z,79.10
2023-02-15T18:55:51.370Z,79.40
2023-02-15T18:58:24.043Z,79.50
2023-02-15T19:00:55.108Z,79.30
2023-02-15T19:03:24.626Z,79.30
2023-02-15T19:05:54.330Z,79.30
2023-02-15T19:08:26.397Z,79.20
2023-02-15T19:10:56.147Z,79.20
2023-02-15T19:13:25.702Z,79.20
2023-02-15T19:15:55.435Z,79.10
2023-02-15T19:18:25.053Z,78.80
2023-02-15T19:20:54.592Z,78.60
2023-02-15T19:23:26.046Z,78.60
2023-02-15T19:25:56.742Z,78.70
2023-02-15T19:28:34.092Z,78.60
2023-02-15T19:31:03.794Z,78.50
2023-02-15T19:33:33.595Z,78.40
2023-02-15T19:36:03.635Z,78.30
2023-02-15T19:38:38.202Z,78.20
2023-02-15T19:41:10.423Z,78.20
2023-02-15T19:43:40.135Z,78.30
2023-02-15T19:46:12.950Z,78.20
2023-02-15T19:48:42.617Z,78.00
2023-02-15T19:51:15.247Z,77.90
2023-02-15T19:53:44.974Z,77.80
2023-02-15T19:56:25.679Z,77.70
2023-02-15T19:58:59.443Z,77.70
2023-02-15T20:01:29.179Z,77.70
2023-02-15T20:03:58.965Z,77.70
2023-02-15T20:06:28.732Z,77.50
2023-02-15T20:08:59.462Z,77.40
2023-02-15T20:11:29.085Z,77.50
2023-02-15T20:13:58.790Z,77.50
2023-02-15T20:16:30.129Z,77.40
2023-02-15T20:18:59.754Z,77.40
2023-02-15T20:21:29.438Z,77.50
2023-02-15T20:23:59.204Z,77.40
2023-02-15T20:26:31.496Z,77.60
2023-02-15T20:29:02.276Z,77.70
2023-02-15T20:31:32.941Z,77.90
2023-02-15T20:34:02.607Z,77.90
2023-02-15T20:36:32.266Z,78.00
2023-02-15T20:39:05.304Z,78.00
2023-02-15T20:41:37.886Z,78.00
2023-02-15T20:44:28.074Z,78.10
2023-02-15T20:47:00.001Z,78.20
2023-02-15T20:49:30.612Z,78.20
2023-02-15T20:52:00.665Z,78.20
2023-02-15T20:54:35.453Z,78.10
2023-02-15T20:57:07.831Z,78.30
2023-02-15T20:59:43.892Z,78.10
2023-02-15T21:02:27.023Z,78.10
2023-02-15T21:04:57.257Z,77.90
2023-02-15T21:07:26.937Z,78.60
2023-02-15T21:09:56.669Z,78.60
2023-02-15T21:12:27.271Z,77.70
2023-02-15T21:14:56.894Z,77.60
2023-02-15T21:17:26.524Z,77.50
2023-02-15T21:19:56.285Z,77.10
2023-02-15T21:22:26.431Z,77.00
2023-02-15T21:24:56.665Z,76.90
2023-02-15T21:27:26.318Z,76.80
2023-02-15T21:29:55.987Z,76.60
2023-02-15T21:32:25.828Z,76.30
2023-02-15T21:34:55.570Z,76.20
2023-02-15T21:37:35.622Z,76.20
2023-02-15T21:40:08.609Z,75.90
2023-02-15T21:42:58.035Z,75.70
2023-02-15T21:45:47.297Z,75.80
2023-02-15T21:48:16.951Z,75.80
2023-02-15T21:51:06.420Z,75.80
2023-02-15T21:53:39.593Z,75.60
2023-02-15T21:56:12.710Z,75.60
2023-02-15T21:58:43.217Z,75.50
2023-02-15T22:01:32.650Z,75.50
2023-02-15T22:04:02.375Z,75.40
2023-02-15T22:06:32.002Z,75.40
2023-02-15T22:09:01.580Z,75.20
2023-02-15T22:11:33.773Z,75.20
2023-02-15T22:14:03.443Z,75.20
2023-02-15T22:16:33.165Z,75.10
2023-02-15T22:19:02.874Z,75.00
2023-02-15T22:21:33.042Z,74.90
2023-02-15T22:24:02.734Z,74.90
2023-02-15T22:26:32.964Z,74.90
2023-02-15T22:29:02.702Z,74.90
2023-02-15T22:31:32.537Z,74.90
2023-02-15T22:34:02.512Z,75.00
2023-02-15T22:36:33.020Z,75.20
2023-02-15T22:39:02.615Z,75.40
2023-02-15T22:41:33.494Z,75.40
2023-02-15T22:44:03.113Z,75.50
2023-02-15T22:46:32.825Z,75.70
2023-02-15T22:49:02.571Z,75.80
2023-02-15T22:51:32.324Z,76.10
2023-02-15T22:54:02.039Z,76.10
2023-02-15T22:56:42.204Z,76.20
2023-02-15T22:59:30.412Z,76.10
2023-02-15T23:02:00.503Z,76.20
2023-02-15T23:04:31.483Z,76.30
2023-02-15T23:07:02.572Z,76.50
2023-02-15T23:09:32.735Z,76.50
2023-02-15T23:12:02.291Z,76.90
2023-02-15T23:14:37.948Z,77.10
2023-02-15T23:17:07.496Z,77.50
2023-02-15T23:19:37.226Z,77.60
2023-02-15T23:22:06.936Z,77.80
2023-02-15T23:24:36.648Z,77.80
2023-02-15T23:27:25.865Z,78.30
2023-02-15T23:29:55.713Z,77.50
2023-02-15T23:32:25.448Z,77.60
2023-02-15T23:34:55.252Z,77.90
2023-02-15T23:37:24.916Z,78.20
2023-02-15T23:40:14.269Z,78.20
2023-02-15T23:42:43.912Z,78.20
2023-02-15T23:45:26.678Z,78.20
2023-02-15T23:48:16.005Z,78.40
2023-02-15T23:50:45.710Z,78.50
2023-02-15T23:53:15.316Z,78.60
2023-02-15T23:55:46.716Z,78.80
2023-02-15T23:58:21.226Z,78.70
